sensor_id;sensor_type;location;lat;lon;timestamp;P1;P2;P0
28026;PMS5003;15344;52.342;-1.290;2023-03-04T00:01:26;13;8;
28026;PMS5003;15344;52.342;-1.290;2023-03-04T00:03:51;10;8;
28026;PMS5003;15344;52.342;-1.290;2023-03-04T00:06:17;12;7;
28026;PMS5003;15344;52.342;-1.290;2023-03-04T00:08:42;8;6;
28026;PMS5003;15344;52.342;-1.290;2023-03-04T00:11:07;12;8;
28026;PMS5003;15344;52.342;-1.290;2023-03-04T00:13:33;7;7;
28026;PMS5003;15344;52.342;-1.290;2023-03-04T00:15:58;13;10;
28026;PMS5003;15344;52.342;-1.290;2023-03-04T00:18:24;13;12;
28026;PMS5003;15344;52.342;-1.290;2023-03-04T00:20:50;14;8;
28026;PMS5003;15344;52.342;-1.290;2023-03-04T00:23:16;9;7;
28026;PMS5003;15344;52.342;-1.290;2023-03-04T00:25:41;14;11;
28026;PMS5003;15344;52.342;-1.290;2023-03-04T00:28:06;11;6;
28026;PMS5003;15344;52.342;-1.290;2023-03-04T00:30:32;9;8;
28026;PMS5003;15344;52.342;-1.290;2023-03-04T00:32:57;7;7;
28026;PMS5003;15344;52.342;-1.290;2023-03-04T00:35:23;7;6;
28026;PMS5003;15344;52.342;-1.290;2023-03-04T00:37:49;7;6;
28026;PMS5003;15344;52.342;-1.290;2023-03-04T00:40:14;5;5;
28026;PMS5003;15344;52.342;-1.290;2023-03-04T00:42:40;8;8;
28026;PMS5003;15344;52.342;-1.290;2023-03-04T00:45:06;12;12;
28026;PMS5003;15344;52.342;-1.290;2023-03-04T00:47:31;9;7;
28026;PMS5003;15344;52.342;-1.290;2023-03-04T00:49:56;11;8;
28026;PMS5003;15344;52.342;-1.290;2023-03-04T00:52:22;9;6;
28026;PMS5003;15344;52.342;-1.290;2023-03-04T00:54:47;8;8;
28026;PMS5003;15344;52.342;-1.290;2023-03-04T00:57:13;13;9;
28026;PMS5003;15344;52.342;-1.290;2023-03-04T00:59:38;7;7;
28026;PMS5003;15344;52.342;-1.290;2023-03-04T01:02:04;13;11;
28026;PMS5003;15344;52.342;-1.290;2023-03-04T01:04:30;17;12;
28026;PMS5003;15344;52.342;-1.290;2023-03-04T01:06:55;12;10;
28026;PMS5003;15344;52.342;-1.290;2023-03-04T01:09:20;11;11;
28026;PMS5003;15344;52.342;-1.290;2023-03-04T01:11:47;20;15;
28026;PMS5003;15344;52.342;-1.290;2023-03-04T01:14:12;20;16;
28026;PMS5003;15344;52.342;-1.290;2023-03-04T01:16:37;22;18;
28026;PMS5003;15344;52.342;-1.290;2023-03-04T01:19:03;18;14;
28026;PMS5003;15344;52.342;-1.290;2023-03-04T01:21:28;22;17;
28026;PMS5003;15344;52.342;-1.290;2023-03-04T01:23:53;24;20;
28026;PMS5003;15344;52.342;-1.290;2023-03-04T01:26:19;27;22;
28026;PMS5003;15344;52.342;-1.290;2023-03-04T01:28:45;28;22;
28026;PMS5003;15344;52.342;-1.290;2023-03-04T01:31:11;24;20;
28026;PMS5003;15344;52.342;-1.290;2023-03-04T01:33:36;22;15;
28026;PMS5003;15344;52.342;-1.290;2023-03-04T01:36:02;22;19;
28026;PMS5003;15344;52.342;-1.290;2023-03-04T01:38:28;22;19;
28026;PMS5003;15344;52.342;-1.290;2023-03-04T01:40:53;18;14;
28026;PMS5003;15344;52.342;-1.290;2023-03-04T01:43:19;20;16;
28026;PMS5003;15344;52.342;-1.290;2023-03-04T01:45:44;20;15;
28026;PMS5003;15344;52.342;-1.290;2023-03-04T01:48:09;19;15;
28026;PMS5003;15344;52.342;-1.290;2023-03-04T01:50:35;23;19;
28026;PMS5003;15344;52.342;-1.290;2023-03-04T01:53:01;19;16;
28026;PMS5003;15344;52.342;-1.290;2023-03-04T01:55:26;13;12;
28026;PMS5003;15344;52.342;-1.290;2023-03-04T01:57:52;20;15;
28026;PMS5003;15344;52.342;-1.290;2023-03-04T02:00:19;18;17;
28026;PMS5003;15344;52.342;-1.290;2023-03-04T02:02:42;21;17;
28026;PMS5003;15344;52.342;-1.290;2023-03-04T02:05:08;19;15;
28026;PMS5003;15344;52.342;-1.290;2023-03-04T02:07:34;19;16;
28026;PMS5003;15344;52.342;-1.290;2023-03-04T02:09:59;21;17;
28026;PMS5003;15344;52.342;-1.290;2023-03-04T02:12:25;21;15;
28026;PMS5003;15344;52.342;-1.290;2023-03-04T02:14:51;17;16;
28026;PMS5003;15344;52.342;-1.290;2023-03-04T02:17:16;13;13;
28026;PMS5003;15344;52.342;-1.290;2023-03-04T02:19:43;21;16;
28026;PMS5003;15344;52.342;-1.290;2023-03-04T02:22:07;18;12;
28026;PMS5003;15344;52.342;-1.290;2023-03-04T02:24:33;17;15;
28026;PMS5003;15344;52.342;-1.290;2023-03-04T02:26:58;19;13;
28026;PMS5003;15344;52.342;-1.290;2023-03-04T02:29:23;19;17;
28026;PMS5003;15344;52.342;-1.290;2023-03-04T02:31:49;17;15;
28026;PMS5003;15344;52.342;-1.290;2023-03-04T02:34:15;24;15;
28026;PMS5003;15344;52.342;-1.290;2023-03-04T02:36:39;21;19;
28026;PMS5003;15344;52.342;-1.290;2023-03-04T02:39:06;23;20;
28026;PMS5003;15344;52.342;-1.290;2023-03-04T02:41:30;19;16;
28026;PMS5003;15344;52.342;-1.290;2023-03-04T02:43:55;20;16;
28026;PMS5003;15344;52.342;-1.290;2023-03-04T02:46:22;21;14;
28026;PMS5003;15344;52.342;-1.290;2023-03-04T02:48:47;24;17;
28026;PMS5003;15344;52.342;-1.290;2023-03-04T02:51:12;17;16;
28026;PMS5003;15344;52.342;-1.290;2023-03-04T02:53:37;19;16;
28026;PMS5003;15344;52.342;-1.290;2023-03-04T02:56:03;20;16;
28026;PMS5003;15344;52.342;-1.290;2023-03-04T02:58:28;17;12;
28026;PMS5003;15344;52.342;-1.290;2023-03-04T03:00:54;14;12;
28026;PMS5003;15344;52.342;-1.290;2023-03-04T03:03:19;16;13;
28026;PMS5003;15344;52.342;-1.290;2023-03-04T03:05:45;15;11;
28026;PMS5003;15344;52.342;-1.290;2023-03-04T03:08:11;14;12;
28026;PMS5003;15344;52.342;-1.290;2023-03-04T03:10:36;17;13;
28026;PMS5003;15344;52.342;-1.290;2023-03-04T03:13:01;18;11;
28026;PMS5003;15344;52.342;-1.290;2023-03-04T03:15:27;14;10;
28026;PMS5003;15344;52.342;-1.290;2023-03-04T03:17:52;12;10;
28026;PMS5003;15344;52.342;-1.290;2023-03-04T03:20:18;14;11;
28026;PMS5003;15344;52.342;-1.290;2023-03-04T03:22:44;10;10;
28026;PMS5003;15344;52.342;-1.290;2023-03-04T03:25:10;9;7;
28026;PMS5003;15344;52.342;-1.290;2023-03-04T03:27:35;10;7;
28026;PMS5003;15344;52.342;-1.290;2023-03-04T03:30:00;8;8;
28026;PMS5003;15344;52.342;-1.290;2023-03-04T03:32:26;10;10;
28026;PMS5003;15344;52.342;-1.290;2023-03-04T03:34:51;8;8;
28026;PMS5003;15344;52.342;-1.290;2023-03-04T03:37:17;8;7;
28026;PMS5003;15344;52.342;-1.290;2023-03-04T03:39:42;10;8;
28026;PMS5003;15344;52.342;-1.290;2023-03-04T03:42:08;10;9;
28026;PMS5003;15344;52.342;-1.290;2023-03-04T03:44:33;13;10;
28026;PMS5003;15344;52.342;-1.290;2023-03-04T03:46:59;12;8;
28026;PMS5003;15344;52.342;-1.290;2023-03-04T03:49:24;10;10;
28026;PMS5003;15344;52.342;-1.290;2023-03-04T03:51:50;18;11;
28026;PMS5003;15344;52.342;-1.290;2023-03-04T03:54:15;10;8;
28026;PMS5003;15344;52.342;-1.290;2023-03-04T03:56:40;14;10;
28026;PMS5003;15344;52.342;-1.290;2023-03-04T03:59:06;10;8;
28026;PMS5003;15344;52.342;-1.290;2023-03-04T04:01:31;11;8;
28026;PMS5003;15344;52.342;-1.290;2023-03-04T04:03:57;11;8;
28026;PMS5003;15344;52.342;-1.290;2023-03-04T04:06:22;11;7;
28026;PMS5003;15344;52.342;-1.290;2023-03-04T04:08:48;8;6;
28026;PMS5003;15344;52.342;-1.290;2023-03-04T04:11:14;6;5;
28026;PMS5003;15344;52.342;-1.290;2023-03-04T04:13:39;10;8;
28026;PMS5003;15344;52.342;-1.290;2023-03-04T04:16:05;6;6;
28026;PMS5003;15344;52.342;-1.290;2023-03-04T04:18:30;12;7;
28026;PMS5003;15344;52.342;-1.290;2023-03-04T04:20:56;6;5;
28026;PMS5003;15344;52.342;-1.290;2023-03-04T04:23:21;6;5;
28026;PMS5003;15344;52.342;-1.290;2023-03-04T04:25:47;6;6;
28026;PMS5003;15344;52.342;-1.290;2023-03-04T04:28:12;6;5;
28026;PMS5003;15344;52.342;-1.290;2023-03-04T04:30:38;7;6;
28026;PMS5003;15344;52.342;-1.290;2023-03-04T04:33:04;4;3;
28026;PMS5003;15344;52.342;-1.290;2023-03-04T04:35:29;15;6;
28026;PMS5003;15344;52.342;-1.290;2023-03-04T04:37:55;4;4;
28026;PMS5003;15344;52.342;-1.290;2023-03-04T04:40:20;5;4;
28026;PMS5003;15344;52.342;-1.290;2023-03-04T04:42:46;6;4;
28026;PMS5003;15344;52.342;-1.290;2023-03-04T04:45:11;4;4;
28026;PMS5003;15344;52.342;-1.290;2023-03-04T04:47:37;8;5;
28026;PMS5003;15344;52.342;-1.290;2023-03-04T04:50:02;4;4;
28026;PMS5003;15344;52.342;-1.290;2023-03-04T04:52:28;9;5;
28026;PMS5003;15344;52.342;-1.290;2023-03-04T04:54:53;10;5;
28026;PMS5003;15344;52.342;-1.290;2023-03-04T04:57:19;7;4;
28026;PMS5003;15344;52.342;-1.290;2023-03-04T04:59:44;11;6;
28026;PMS5003;15344;52.342;-1.290;2023-03-04T05:02:10;6;5;
28026;PMS5003;15344;52.342;-1.290;2023-03-04T05:04:36;4;4;
28026;PMS5003;15344;52.342;-1.290;2023-03-04T05:07:01;6;4;
28026;PMS5003;15344;52.342;-1.290;2023-03-04T05:09:27;8;6;
28026;PMS5003;15344;52.342;-1.290;2023-03-04T05:11:52;6;6;
28026;PMS5003;15344;52.342;-1.290;2023-03-04T05:14:18;9;6;
28026;PMS5003;15344;52.342;-1.290;2023-03-04T05:16:43;11;5;
28026;PMS5003;15344;52.342;-1.290;2023-03-04T05:19:09;6;4;
28026;PMS5003;15344;52.342;-1.290;2023-03-04T05:21:34;6;5;
28026;PMS5003;15344;52.342;-1.290;2023-03-04T05:24:00;9;7;
28026;PMS5003;15344;52.342;-1.290;2023-03-04T05:26:25;5;5;
28026;PMS5003;15344;52.342;-1.290;2023-03-04T05:28:51;7;4;
28026;PMS5003;15344;52.342;-1.290;2023-03-04T05:31:16;9;7;
28026;PMS5003;15344;52.342;-1.290;2023-03-04T05:33:42;8;7;
28026;PMS5003;15344;52.342;-1.290;2023-03-04T05:36:07;6;4;
28026;PMS5003;15344;52.342;-1.290;2023-03-04T05:38:33;5;5;
28026;PMS5003;15344;52.342;-1.290;2023-03-04T05:40:59;6;4;
28026;PMS5003;15344;52.342;-1.290;2023-03-04T05:43:24;5;5;
28026;PMS5003;15344;52.342;-1.290;2023-03-04T05:45:50;8;4;
28026;PMS5003;15344;52.342;-1.290;2023-03-04T05:48:16;9;6;
28026;PMS5003;15344;52.342;-1.290;2023-03-04T05:50:41;4;4;
28026;PMS5003;15344;52.342;-1.290;2023-03-04T05:53:06;5;5;
28026;PMS5003;15344;52.342;-1.290;2023-03-04T05:55:32;8;5;
28026;PMS5003;15344;52.342;-1.290;2023-03-04T05:57:57;7;5;
28026;PMS5003;15344;52.342;-1.290;2023-03-04T06:00:23;7;4;
28026;PMS5003;15344;52.342;-1.290;2023-03-04T06:02:49;9;5;
28026;PMS5003;15344;52.342;-1.290;2023-03-04T06:05:14;5;5;
28026;PMS5003;15344;52.342;-1.290;2023-03-04T06:07:40;7;7;
28026;PMS5003;15344;52.342;-1.290;2023-03-04T06:10:06;7;5;
28026;PMS5003;15344;52.342;-1.290;2023-03-04T06:12:31;7;5;
28026;PMS5003;15344;52.342;-1.290;2023-03-04T06:14:56;8;7;
28026;PMS5003;15344;52.342;-1.290;2023-03-04T06:17:22;8;5;
28026;PMS5003;15344;52.342;-1.290;2023-03-04T06:19:47;4;3;
28026;PMS5003;15344;52.342;-1.290;2023-03-04T06:22:13;7;6;
28026;PMS5003;15344;52.342;-1.290;2023-03-04T06:24:38;8;6;
28026;PMS5003;15344;52.342;-1.290;2023-03-04T06:27:04;7;7;
28026;PMS5003;15344;52.342;-1.290;2023-03-04T06:29:29;7;6;
28026;PMS5003;15344;52.342;-1.290;2023-03-04T06:31:55;7;6;
28026;PMS5003;15344;52.342;-1.290;2023-03-04T06:34:20;9;6;
28026;PMS5003;15344;52.342;-1.290;2023-03-04T06:36:46;9;6;
28026;PMS5003;15344;52.342;-1.290;2023-03-04T06:39:11;9;6;
28026;PMS5003;15344;52.342;-1.290;2023-03-04T06:41:37;10;8;
28026;PMS5003;15344;52.342;-1.290;2023-03-04T06:44:02;11;8;
28026;PMS5003;15344;52.342;-1.290;2023-03-04T06:46:28;9;7;
28026;PMS5003;15344;52.342;-1.290;2023-03-04T06:48:53;10;10;
28026;PMS5003;15344;52.342;-1.290;2023-03-04T06:51:19;7;6;
28026;PMS5003;15344;52.342;-1.290;2023-03-04T06:53:45;12;8;
28026;PMS5003;15344;52.342;-1.290;2023-03-04T06:56:11;9;6;
28026;PMS5003;15344;52.342;-1.290;2023-03-04T06:58:36;8;5;
28026;PMS5003;15344;52.342;-1.290;2023-03-04T07:03:27;10;10;
28026;PMS5003;15344;52.342;-1.290;2023-03-04T07:05:52;11;10;
28026;PMS5003;15344;52.342;-1.290;2023-03-04T07:08:18;7;6;
28026;PMS5003;15344;52.342;-1.290;2023-03-04T07:10:43;8;8;
28026;PMS5003;15344;52.342;-1.290;2023-03-04T07:13:09;11;8;
28026;PMS5003;15344;52.342;-1.290;2023-03-04T07:15:34;7;5;
28026;PMS5003;15344;52.342;-1.290;2023-03-04T07:18:00;9;9;
28026;PMS5003;15344;52.342;-1.290;2023-03-04T07:20:26;9;6;
28026;PMS5003;15344;52.342;-1.290;2023-03-04T07:22:51;8;7;
28026;PMS5003;15344;52.342;-1.290;2023-03-04T07:25:17;11;8;
28026;PMS5003;15344;52.342;-1.290;2023-03-04T07:27:42;8;7;
28026;PMS5003;15344;52.342;-1.290;2023-03-04T07:30:08;8;5;
28026;PMS5003;15344;52.342;-1.290;2023-03-04T07:32:33;15;8;
28026;PMS5003;15344;52.342;-1.290;2023-03-04T07:34:59;8;8;
28026;PMS5003;15344;52.342;-1.290;2023-03-04T07:37:24;11;9;
28026;PMS5003;15344;52.342;-1.290;2023-03-04T07:39:50;9;8;
28026;PMS5003;15344;52.342;-1.290;2023-03-04T07:42:15;17;11;
28026;PMS5003;15344;52.342;-1.290;2023-03-04T07:44:40;14;12;
28026;PMS5003;15344;52.342;-1.290;2023-03-04T07:47:06;12;9;
28026;PMS5003;15344;52.342;-1.290;2023-03-04T07:49:32;13;9;
28026;PMS5003;15344;52.342;-1.290;2023-03-04T07:51:57;9;9;
28026;PMS5003;15344;52.342;-1.290;2023-03-04T07:54:23;11;8;
28026;PMS5003;15344;52.342;-1.290;2023-03-04T07:56:48;8;7;
28026;PMS5003;15344;52.342;-1.290;2023-03-04T07:59:14;9;5;
28026;PMS5003;15344;52.342;-1.290;2023-03-04T08:01:39;9;7;
28026;PMS5003;15344;52.342;-1.290;2023-03-04T08:04:05;11;9;
28026;PMS5003;15344;52.342;-1.290;2023-03-04T08:06:31;13;11;
28026;PMS5003;15344;52.342;-1.290;2023-03-04T08:08:56;11;11;
28026;PMS5003;15344;52.342;-1.290;2023-03-04T08:11:21;9;9;
28026;PMS5003;15344;52.342;-1.290;2023-03-04T08:13:47;19;13;
28026;PMS5003;15344;52.342;-1.290;2023-03-04T08:16:12;15;11;
28026;PMS5003;15344;52.342;-1.290;2023-03-04T08:18:38;13;10;
28026;PMS5003;15344;52.342;-1.290;2023-03-04T08:21:07;12;10;
28026;PMS5003;15344;52.342;-1.290;2023-03-04T08:23:29;18;12;
28026;PMS5003;15344;52.342;-1.290;2023-03-04T08:25:54;11;10;
28026;PMS5003;15344;52.342;-1.290;2023-03-04T08:28:20;10;9;
28026;PMS5003;15344;52.342;-1.290;2023-03-04T08:33:11;15;11;
28026;PMS5003;15344;52.342;-1.290;2023-03-04T08:35:37;10;10;
28026;PMS5003;15344;52.342;-1.290;2023-03-04T08:38:02;13;10;
28026;PMS5003;15344;52.342;-1.290;2023-03-04T08:40:27;15;12;
28026;PMS5003;15344;52.342;-1.290;2023-03-04T08:42:52;12;10;
28026;PMS5003;15344;52.342;-1.290;2023-03-04T08:45:18;14;11;
28026;PMS5003;15344;52.342;-1.290;2023-03-04T08:47:43;11;9;
28026;PMS5003;15344;52.342;-1.290;2023-03-04T08:50:09;12;10;
28026;PMS5003;15344;52.342;-1.290;2023-03-04T08:52:34;12;10;
28026;PMS5003;15344;52.342;-1.290;2023-03-04T08:55:00;13;11;
28026;PMS5003;15344;52.342;-1.290;2023-03-04T08:57:26;22;16;
28026;PMS5003;15344;52.342;-1.290;2023-03-04T08:59:51;12;10;
28026;PMS5003;15344;52.342;-1.290;2023-03-04T09:02:17;13;10;
28026;PMS5003;15344;52.342;-1.290;2023-03-04T09:04:42;15;10;
28026;PMS5003;15344;52.342;-1.290;2023-03-04T09:07:08;20;16;
28026;PMS5003;15344;52.342;-1.290;2023-03-04T09:09:33;11;10;
28026;PMS5003;15344;52.342;-1.290;2023-03-04T09:11:59;14;12;
28026;PMS5003;15344;52.342;-1.290;2023-03-04T09:14:25;13;11;
28026;PMS5003;15344;52.342;-1.290;2023-03-04T09:16:50;9;8;
28026;PMS5003;15344;52.342;-1.290;2023-03-04T09:19:15;11;11;
28026;PMS5003;15344;52.342;-1.290;2023-03-04T09:21:41;16;12;
28026;PMS5003;15344;52.342;-1.290;2023-03-04T09:24:07;10;10;
28026;PMS5003;15344;52.342;-1.290;2023-03-04T09:26:32;11;11;
28026;PMS5003;15344;52.342;-1.290;2023-03-04T09:28:59;17;13;
28026;PMS5003;15344;52.342;-1.290;2023-03-04T09:31:23;11;9;
28026;PMS5003;15344;52.342;-1.290;2023-03-04T09:33:48;13;11;
28026;PMS5003;15344;52.342;-1.290;2023-03-04T09:36:14;14;14;
28026;PMS5003;15344;52.342;-1.290;2023-03-04T09:38:39;12;10;
28026;PMS5003;15344;52.342;-1.290;2023-03-04T09:41:06;18;12;
28026;PMS5003;15344;52.342;-1.290;2023-03-04T09:43:30;14;9;
28026;PMS5003;15344;52.342;-1.290;2023-03-04T09:45:56;9;9;
28026;PMS5003;15344;52.342;-1.290;2023-03-04T09:48:22;12;12;
28026;PMS5003;15344;52.342;-1.290;2023-03-04T09:50:48;10;9;
28026;PMS5003;15344;52.342;-1.290;2023-03-04T09:53:13;13;12;
28026;PMS5003;15344;52.342;-1.290;2023-03-04T09:55:38;12;10;
28026;PMS5003;15344;52.342;-1.290;2023-03-04T09:58:04;8;8;
28026;PMS5003;15344;52.342;-1.290;2023-03-04T10:00:31;10;10;
28026;PMS5003;15344;52.342;-1.290;2023-03-04T10:05:20;12;10;
28026;PMS5003;15344;52.342;-1.290;2023-03-04T10:07:45;14;10;
28026;PMS5003;15344;52.342;-1.290;2023-03-04T10:10:11;10;10;
28026;PMS5003;15344;52.342;-1.290;2023-03-04T10:12:36;12;11;
28026;PMS5003;15344;52.342;-1.290;2023-03-04T10:15:02;10;10;
28026;PMS5003;15344;52.342;-1.290;2023-03-04T10:17:28;11;11;
28026;PMS5003;15344;52.342;-1.290;2023-03-04T10:19:54;14;12;
28026;PMS5003;15344;52.342;-1.290;2023-03-04T10:22:20;9;9;
28026;PMS5003;15344;52.342;-1.290;2023-03-04T10:24:43;14;10;
28026;PMS5003;15344;52.342;-1.290;2023-03-04T10:27:09;20;12;
28026;PMS5003;15344;52.342;-1.290;2023-03-04T10:29:33;13;12;
28026;PMS5003;15344;52.342;-1.290;2023-03-04T10:31:59;11;9;
28026;PMS5003;15344;52.342;-1.290;2023-03-04T10:34:24;14;10;
28026;PMS5003;15344;52.342;-1.290;2023-03-04T10:36:52;13;10;
28026;PMS5003;15344;52.342;-1.290;2023-03-04T10:39:17;12;9;
28026;PMS5003;15344;52.342;-1.290;2023-03-04T10:41:41;9;9;
28026;PMS5003;15344;52.342;-1.290;2023-03-04T10:44:11;13;13;
28026;PMS5003;15344;52.342;-1.290;2023-03-04T10:46:31;19;16;
28026;PMS5003;15344;52.342;-1.290;2023-03-04T10:48:57;49;38;
28026;PMS5003;15344;52.342;-1.290;2023-03-04T10:51:23;18;13;
28026;PMS5003;15344;52.342;-1.290;2023-03-04T10:53:48;11;9;
28026;PMS5003;15344;52.342;-1.290;2023-03-04T10:58:40;8;8;
28026;PMS5003;15344;52.342;-1.290;2023-03-04T11:01:04;11;9;
28026;PMS5003;15344;52.342;-1.290;2023-03-04T11:03:31;12;10;
28026;PMS5003;15344;52.342;-1.290;2023-03-04T11:08:21;20;16;
28026;PMS5003;15344;52.342;-1.290;2023-03-04T11:10:46;14;12;
28026;PMS5003;15344;52.342;-1.290;2023-03-04T11:13:11;14;11;
28026;PMS5003;15344;52.342;-1.290;2023-03-04T11:18:03;10;10;
28026;PMS5003;15344;52.342;-1.290;2023-03-04T11:20:29;13;13;
28026;PMS5003;15344;52.342;-1.290;2023-03-04T11:22:53;11;9;
28026;PMS5003;15344;52.342;-1.290;2023-03-04T11:25:20;14;9;
28026;PMS5003;15344;52.342;-1.290;2023-03-04T11:27:44;10;8;
28026;PMS5003;15344;52.342;-1.290;2023-03-04T11:30:18;7;7;
28026;PMS5003;15344;52.342;-1.290;2023-03-04T11:32:36;8;7;
28026;PMS5003;15344;52.342;-1.290;2023-03-04T11:35:02;10;8;
28026;PMS5003;15344;52.342;-1.290;2023-03-04T11:37:27;8;7;
28026;PMS5003;15344;52.342;-1.290;2023-03-04T11:39:53;15;12;
28026;PMS5003;15344;52.342;-1.290;2023-03-04T11:42:20;11;8;
28026;PMS5003;15344;52.342;-1.290;2023-03-04T11:44:42;10;8;
28026;PMS5003;15344;52.342;-1.290;2023-03-04T11:47:12;8;7;
28026;PMS5003;15344;52.342;-1.290;2023-03-04T11:52:00;9;8;
28026;PMS5003;15344;52.342;-1.290;2023-03-04T11:54:25;23;17;
28026;PMS5003;15344;52.342;-1.290;2023-03-04T11:56:50;13;11;
28026;PMS5003;15344;52.342;-1.290;2023-03-04T11:59:22;8;8;
28026;PMS5003;15344;52.342;-1.290;2023-03-04T12:01:41;10;8;
28026;PMS5003;15344;52.342;-1.290;2023-03-04T12:04:08;11;8;
28026;PMS5003;15344;52.342;-1.290;2023-03-04T12:06:34;11;9;
28026;PMS5003;15344;52.342;-1.290;2023-03-04T12:11:24;8;8;
28026;PMS5003;15344;52.342;-1.290;2023-03-04T12:16:18;41;29;
28026;PMS5003;15344;52.342;-1.290;2023-03-04T12:18:41;10;8;
28026;PMS5003;15344;52.342;-1.290;2023-03-04T12:21:08;16;9;
28026;PMS5003;15344;52.342;-1.290;2023-03-04T12:23:34;11;9;
28026;PMS5003;15344;52.342;-1.290;2023-03-04T12:25:55;8;8;
28026;PMS5003;15344;52.342;-1.290;2023-03-04T12:28:23;7;7;
28026;PMS5003;15344;52.342;-1.290;2023-03-04T12:30:50;8;6;
28026;PMS5003;15344;52.342;-1.290;2023-03-04T12:33:12;17;12;
28026;PMS5003;15344;52.342;-1.290;2023-03-04T12:35:37;15;12;
28026;PMS5003;15344;52.342;-1.290;2023-03-04T12:38:06;27;19;
28026;PMS5003;15344;52.342;-1.290;2023-03-04T12:40:32;11;10;
28026;PMS5003;15344;52.342;-1.290;2023-03-04T12:42:58;19;17;
28026;PMS5003;15344;52.342;-1.290;2023-03-04T12:45:19;16;13;
28026;PMS5003;15344;52.342;-1.290;2023-03-04T12:47:45;15;12;
28026;PMS5003;15344;52.342;-1.290;2023-03-04T12:52:37;11;10;
28026;PMS5003;15344;52.342;-1.290;2023-03-04T12:55:00;12;10;
28026;PMS5003;15344;52.342;-1.290;2023-03-04T12:57:24;10;8;
28026;PMS5003;15344;52.342;-1.290;2023-03-04T12:59:50;15;11;
28026;PMS5003;15344;52.342;-1.290;2023-03-04T13:04:43;12;11;
28026;PMS5003;15344;52.342;-1.290;2023-03-04T13:07:08;11;10;
28026;PMS5003;15344;52.342;-1.290;2023-03-04T13:09:32;20;15;
28026;PMS5003;15344;52.342;-1.290;2023-03-04T13:14:24;16;11;
28026;PMS5003;15344;52.342;-1.290;2023-03-04T13:16:48;10;10;
28026;PMS5003;15344;52.342;-1.290;2023-03-04T13:21:43;12;9;
28026;PMS5003;15344;52.342;-1.290;2023-03-04T13:26:30;14;9;
28026;PMS5003;15344;52.342;-1.290;2023-03-04T13:31:22;12;10;
28026;PMS5003;15344;52.342;-1.290;2023-03-04T13:33:48;10;8;
28026;PMS5003;15344;52.342;-1.290;2023-03-04T13:38:37;9;9;
28026;PMS5003;15344;52.342;-1.290;2023-03-04T13:43:27;10;9;
28026;PMS5003;15344;52.342;-1.290;2023-03-04T13:45:53;9;8;
28026;PMS5003;15344;52.342;-1.290;2023-03-04T13:48:22;12;10;
28026;PMS5003;15344;52.342;-1.290;2023-03-04T13:50:44;17;14;
28026;PMS5003;15344;52.342;-1.290;2023-03-04T13:55:36;14;11;
28026;PMS5003;15344;52.342;-1.290;2023-03-04T13:58:01;24;18;
28026;PMS5003;15344;52.342;-1.290;2023-03-04T14:00:26;22;16;
28026;PMS5003;15344;52.342;-1.290;2023-03-04T14:02:52;12;8;
28026;PMS5003;15344;52.342;-1.290;2023-03-04T14:05:17;10;7;
28026;PMS5003;15344;52.342;-1.290;2023-03-04T14:07:43;12;8;
28026;PMS5003;15344;52.342;-1.290;2023-03-04T14:12:34;10;8;
28026;PMS5003;15344;52.342;-1.290;2023-03-04T14:14:59;8;7;
28026;PMS5003;15344;52.342;-1.290;2023-03-04T14:17:25;10;9;
28026;PMS5003;15344;52.342;-1.290;2023-03-04T14:19:50;14;9;
28026;PMS5003;15344;52.342;-1.290;2023-03-04T14:22:18;9;8;
28026;PMS5003;15344;52.342;-1.290;2023-03-04T14:24:53;8;8;
28026;PMS5003;15344;52.342;-1.290;2023-03-04T14:27:10;10;10;
28026;PMS5003;15344;52.342;-1.290;2023-03-04T14:29:31;15;12;
28026;PMS5003;15344;52.342;-1.290;2023-03-04T14:31:57;13;9;
28026;PMS5003;15344;52.342;-1.290;2023-03-04T14:34:23;11;10;
28026;PMS5003;15344;52.342;-1.290;2023-03-04T14:36:47;17;13;
28026;PMS5003;15344;52.342;-1.290;2023-03-04T14:39:14;9;9;
28026;PMS5003;15344;52.342;-1.290;2023-03-04T14:41:39;10;10;
28026;PMS5003;15344;52.342;-1.290;2023-03-04T14:44:05;14;13;
28026;PMS5003;15344;52.342;-1.290;2023-03-04T14:46:29;9;8;
28026;PMS5003;15344;52.342;-1.290;2023-03-04T14:48:54;11;9;
28026;PMS5003;15344;52.342;-1.290;2023-03-04T14:56:10;8;8;
28026;PMS5003;15344;52.342;-1.290;2023-03-04T14:58:36;13;12;
28026;PMS5003;15344;52.342;-1.290;2023-03-04T15:01:05;17;11;
28026;PMS5003;15344;52.342;-1.290;2023-03-04T15:03:27;11;11;
28026;PMS5003;15344;52.342;-1.290;2023-03-04T15:05:52;11;10;
28026;PMS5003;15344;52.342;-1.290;2023-03-04T15:08:19;13;13;
28026;PMS5003;15344;52.342;-1.290;2023-03-04T15:10:43;11;11;
28026;PMS5003;15344;52.342;-1.290;2023-03-04T15:13:08;10;10;
28026;PMS5003;15344;52.342;-1.290;2023-03-04T15:15:34;19;12;
28026;PMS5003;15344;52.342;-1.290;2023-03-04T15:17:58;15;9;
28026;PMS5003;15344;52.342;-1.290;2023-03-04T15:20:24;13;13;
28026;PMS5003;15344;52.342;-1.290;2023-03-04T15:25:14;13;8;
28026;PMS5003;15344;52.342;-1.290;2023-03-04T15:27:39;13;11;
28026;PMS5003;15344;52.342;-1.290;2023-03-04T15:30:05;8;8;
28026;PMS5003;15344;52.342;-1.290;2023-03-04T15:32:30;9;9;
28026;PMS5003;15344;52.342;-1.290;2023-03-04T15:34:55;11;9;
28026;PMS5003;15344;52.342;-1.290;2023-03-04T15:37:22;9;9;
28026;PMS5003;15344;52.342;-1.290;2023-03-04T15:39:46;10;8;
28026;PMS5003;15344;52.342;-1.290;2023-03-04T15:42:12;20;18;
28026;PMS5003;15344;52.342;-1.290;2023-03-04T15:44:36;17;14;
28026;PMS5003;15344;52.342;-1.290;2023-03-04T15:47:02;12;12;
28026;PMS5003;15344;52.342;-1.290;2023-03-04T15:49:28;15;13;
28026;PMS5003;15344;52.342;-1.290;2023-03-04T15:51:54;19;15;
28026;PMS5003;15344;52.342;-1.290;2023-03-04T15:54:19;12;9;
28026;PMS5003;15344;52.342;-1.290;2023-03-04T15:56:45;11;11;
28026;PMS5003;15344;52.342;-1.290;2023-03-04T15:59:11;16;15;
28026;PMS5003;15344;52.342;-1.290;2023-03-04T16:01:36;15;11;
28026;PMS5003;15344;52.342;-1.290;2023-03-04T16:04:02;14;13;
28026;PMS5003;15344;52.342;-1.290;2023-03-04T16:06:28;10;9;
28026;PMS5003;15344;52.342;-1.290;2023-03-04T16:08:52;9;9;
28026;PMS5003;15344;52.342;-1.290;2023-03-04T16:11:18;13;9;
28026;PMS5003;15344;52.342;-1.290;2023-03-04T16:13:43;12;11;
28026;PMS5003;15344;52.342;-1.290;2023-03-04T16:16:09;17;17;
28026;PMS5003;15344;52.342;-1.290;2023-03-04T16:18:34;11;10;
28026;PMS5003;15344;52.342;-1.290;2023-03-04T16:21:00;12;12;
28026;PMS5003;15344;52.342;-1.290;2023-03-04T16:23:26;16;14;
28026;PMS5003;15344;52.342;-1.290;2023-03-04T16:25:53;12;11;
28026;PMS5003;15344;52.342;-1.290;2023-03-04T16:28:17;13;10;
28026;PMS5003;15344;52.342;-1.290;2023-03-04T16:30:43;19;16;
28026;PMS5003;15344;52.342;-1.290;2023-03-04T16:33:08;14;11;
28026;PMS5003;15344;52.342;-1.290;2023-03-04T16:35:34;16;13;
28026;PMS5003;15344;52.342;-1.290;2023-03-04T16:37:59;11;9;
28026;PMS5003;15344;52.342;-1.290;2023-03-04T16:40:25;11;11;
28026;PMS5003;15344;52.342;-1.290;2023-03-04T16:42:50;13;11;
28026;PMS5003;15344;52.342;-1.290;2023-03-04T16:45:16;13;12;
28026;PMS5003;15344;52.342;-1.290;2023-03-04T16:47:41;12;12;
28026;PMS5003;15344;52.342;-1.290;2023-03-04T16:50:07;11;10;
28026;PMS5003;15344;52.342;-1.290;2023-03-04T16:52:32;14;12;
28026;PMS5003;15344;52.342;-1.290;2023-03-04T16:54:57;18;15;